createdAt,value
2018-06-27T00:00:55.568Z,102780.59
2018-06-27T00:03:24.431Z,102777.59
2018-06-27T00:05:53.195Z,102773.52
2018-06-27T00:08:22.125Z,102776.74
2018-06-27T00:10:50.964Z,102769.80
2018-06-27T00:13:19.824Z,102774.79
2018-06-27T00:15:48.654Z,102769.37
2018-06-27T00:18:17.551Z,102770.52
2018-06-27T00:20:46.424Z,102767.20
2018-06-27T00:23:15.265Z,102770.91
2018-06-27T00:25:44.069Z,102768.44
2018-06-27T00:28:13.049Z,102767.69
2018-06-27T00:30:41.821Z,102771.95
2018-06-27T00:33:10.708Z,102777.47
2018-06-27T00:35:39.486Z,102785.18
2018-06-27T00:38:13.510Z,102780.13
2018-06-27T00:40:42.274Z,102779.02
2018-06-27T00:43:11.215Z,102769.37
2018-06-27T00:45:46.000Z,102772.66
2018-06-27T00:48:14.842Z,102776.37
2018-06-27T00:50:43.880Z,102770.81
2018-06-27T00:53:12.925Z,102766.59
2018-06-27T00:55:41.708Z,102766.92
2018-06-27T00:58:10.677Z,102767.05
2018-06-27T01:00:39.330Z,102766.80
2018-06-27T01:03:08.139Z,102770.62
2018-06-27T01:05:37.028Z,102770.69
2018-06-27T01:08:06.132Z,102764.06
2018-06-27T01:10:34.976Z,102763.03
2018-06-27T01:13:03.831Z,102763.25
2018-06-27T01:15:32.671Z,102767.74
2018-06-27T01:18:01.508Z,102767.68
2018-06-27T01:20:30.511Z,102772.48
2018-06-27T01:22:59.279Z,102767.16
2018-06-27T01:25:27.942Z,102776.84
2018-06-27T01:27:57.059Z,102769.20
2018-06-27T01:30:25.927Z,102773.48
2018-06-27T01:32:54.733Z,102779.73
2018-06-27T01:35:23.598Z,102776.06
2018-06-27T01:37:52.364Z,102777.43
2018-06-27T01:40:21.199Z,102780.11
2018-06-27T01:42:50.036Z,102774.96
2018-06-27T01:45:18.854Z,102771.41
2018-06-27T01:47:47.402Z,102774.26
2018-06-27T01:50:16.203Z,102770.56
2018-06-27T01:52:45.019Z,102773.27
2018-06-27T01:55:14.160Z,102766.05
2018-06-27T01:57:42.931Z,102769.52
2018-06-27T02:00:11.577Z,102767.42
2018-06-27T02:02:40.398Z,102771.35
2018-06-27T02:05:09.186Z,102776.41
2018-06-27T02:07:38.067Z,102777.69
2018-06-27T02:10:06.868Z,102779.67
2018-06-27T02:12:35.666Z,102777.60
2018-06-27T02:15:04.863Z,102769.52
2018-06-27T02:17:33.700Z,102771.52
2018-06-27T02:20:02.639Z,102766.32
2018-06-27T02:22:31.454Z,102771.70
2018-06-27T02:25:00.259Z,102775.05
2018-06-27T02:27:29.136Z,102773.91
2018-06-27T02:29:57.905Z,102776.84
2018-06-27T02:32:26.796Z,102780.66
2018-06-27T02:34:55.578Z,102772.25
2018-06-27T02:37:24.399Z,102773.55
2018-06-27T02:39:53.423Z,102772.31
2018-06-27T02:42:22.061Z,102773.59
2018-06-27T02:44:50.983Z,102777.92
2018-06-27T02:47:19.837Z,102778.56
2018-06-27T02:49:48.648Z,102782.52
2018-06-27T02:52:17.516Z,102779.17
2018-06-27T02:54:46.285Z,102789.36
2018-06-27T02:57:15.475Z,102790.68
2018-06-27T02:59:44.257Z,102788.80
2018-06-27T03:02:12.897Z,102792.95
2018-06-27T03:04:41.728Z,102798.70
2018-06-27T03:07:10.488Z,102787.95
2018-06-27T03:09:39.380Z,102791.25
2018-06-27T03:12:08.159Z,102789.70
2018-06-27T03:14:36.994Z,102791.14
2018-06-27T03:17:05.627Z,102792.90
2018-06-27T03:19:34.468Z,102793.15
2018-06-27T03:22:03.450Z,102789.76
2018-06-27T03:24:32.285Z,102781.78
2018-06-27T03:27:01.123Z,102786.61
2018-06-27T03:29:29.947Z,102781.84
2018-06-27T03:31:58.748Z,102781.78
2018-06-27T03:34:27.674Z,102774.00
2018-06-27T03:36:56.486Z,102781.82
2018-06-27T03:39:25.428Z,102792.61
2018-06-27T03:41:54.256Z,102801.34
2018-06-27T03:44:23.130Z,102801.19
2018-06-27T03:46:52.058Z,102801.17
2018-06-27T03:49:20.908Z,102796.57
2018-06-27T03:51:49.724Z,102800.27
2018-06-27T03:54:18.581Z,102796.30
2018-06-27T03:56:47.403Z,102799.09
2018-06-27T03:59:16.725Z,102803.25
2018-06-27T04:01:45.594Z,102792.19
2018-06-27T04:04:14.396Z,102799.03
2018-06-27T04:06:43.267Z,102802.99
2018-06-27T04:09:12.692Z,102801.92
2018-06-27T04:11:42.152Z,102799.13
2018-06-27T04:14:11.248Z,102807.81
2018-06-27T04:16:40.141Z,102803.75
2018-06-27T04:19:09.028Z,102811.64
2018-06-27T04:21:38.345Z,102803.37
2018-06-27T04:24:07.339Z,102799.27
2018-06-27T04:26:36.219Z,102805.17
2018-06-27T04:29:05.112Z,102817.39
2018-06-27T04:31:34.003Z,102810.64
2018-06-27T04:34:03.181Z,102809.28
2018-06-27T04:36:32.210Z,102808.63
2018-06-27T04:39:01.000Z,102812.27
2018-06-27T04:41:29.953Z,102810.97
2018-06-27T04:43:58.577Z,102805.58
2018-06-27T04:46:27.420Z,102807.44
2018-06-27T04:48:56.325Z,102812.81
2018-06-27T04:51:24.914Z,102813.97
2018-06-27T04:53:53.606Z,102804.71
2018-06-27T04:56:22.392Z,102801.55
2018-06-27T04:58:51.208Z,102803.34
2018-06-27T05:01:20.044Z,102800.52
2018-06-27T05:03:48.854Z,102804.50
2018-06-27T05:06:17.523Z,102805.19
2018-06-27T05:08:46.348Z,102807.52
2018-06-27T05:11:15.152Z,102806.31
2018-06-27T05:13:44.055Z,102803.08
2018-06-27T05:16:12.927Z,102808.45
2018-06-27T05:18:41.732Z,102810.14
2018-06-27T05:21:10.539Z,102810.16
2018-06-27T05:23:39.351Z,102820.65
2018-06-27T05:26:08.227Z,102818.97
2018-06-27T05:28:37.041Z,102811.07
2018-06-27T05:31:06.111Z,102812.32
2018-06-27T05:33:34.938Z,102811.78
2018-06-27T05:36:03.601Z,102813.42
2018-06-27T05:38:32.514Z,102816.59
2018-06-27T05:41:01.332Z,102827.30
2018-06-27T05:43:30.337Z,102828.92
2018-06-27T05:45:59.250Z,102818.28
2018-06-27T05:48:28.057Z,102827.23
2018-06-27T05:50:57.010Z,102829.52
2018-06-27T05:53:25.832Z,102837.30
2018-06-27T05:55:54.653Z,102842.60
2018-06-27T05:58:23.480Z,102837.83
2018-06-27T06:00:58.365Z,102844.33
2018-06-27T06:03:27.511Z,102838.31
2018-06-27T06:05:56.319Z,102850.09
2018-06-27T06:08:25.088Z,102848.11
2018-06-27T06:10:53.907Z,102838.27
2018-06-27T06:13:22.657Z,102839.81
2018-06-27T06:15:51.584Z,102835.84
2018-06-27T06:18:20.392Z,102842.89
2018-06-27T06:20:49.216Z,102837.42
2018-06-27T06:23:18.007Z,102846.61
2018-06-27T06:25:46.670Z,102853.48
2018-06-27T06:28:15.517Z,102849.36
2018-06-27T06:30:44.422Z,102863.28
2018-06-27T06:33:13.223Z,102860.30
2018-06-27T06:35:42.065Z,102860.33
2018-06-27T06:38:10.811Z,102865.80
2018-06-27T06:40:39.734Z,102855.91
2018-06-27T06:43:08.500Z,102851.01
2018-06-27T06:45:43.410Z,102853.18
2018-06-27T06:48:12.174Z,102858.45
2018-06-27T06:50:41.056Z,102868.23
2018-06-27T06:53:09.718Z,102864.66
2018-06-27T06:55:38.536Z,102863.28
2018-06-27T06:58:07.319Z,102863.41
2018-06-27T07:00:36.148Z,102864.57
2018-06-27T07:03:04.871Z,102862.35
2018-06-27T07:05:33.635Z,102863.27
2018-06-27T07:08:02.464Z,102871.50
2018-06-27T07:10:31.228Z,102874.48
2018-06-27T07:13:00.333Z,102868.84
2018-06-27T07:15:29.177Z,102876.77
2018-06-27T07:17:57.990Z,102874.58
2018-06-27T07:20:26.828Z,102863.22
2018-06-27T07:22:55.702Z,102859.66
2018-06-27T07:25:24.512Z,102871.77
2018-06-27T07:27:53.403Z,102865.45
2018-06-27T07:30:22.219Z,102868.84
2018-06-27T07:32:51.134Z,102866.52
2018-06-27T07:35:19.945Z,102867.58
2018-06-27T07:37:48.837Z,102865.77
2018-06-27T07:40:17.772Z,102868.27
2018-06-27T07:42:46.437Z,102871.19
2018-06-27T07:45:21.105Z,102868.20
2018-06-27T07:47:49.803Z,102873.22
2018-06-27T07:50:18.525Z,102859.38
2018-06-27T07:52:47.437Z,102863.73
2018-06-27T07:55:16.424Z,102860.27
2018-06-27T07:57:45.069Z,102854.29
2018-06-27T08:00:13.968Z,102855.28
2018-06-27T08:02:42.660Z,102857.26
2018-06-27T08:05:11.528Z,102856.02
2018-06-27T08:07:40.321Z,102852.62
2018-06-27T08:10:09.136Z,102864.12
2018-06-27T08:12:37.951Z,102856.55
2018-06-27T08:15:07.237Z,102847.48
2018-06-27T08:17:36.088Z,102848.30
2018-06-27T08:20:05.022Z,102844.81
2018-06-27T08:22:33.785Z,102850.27
2018-06-27T08:25:02.680Z,102845.02
2018-06-27T08:27:31.347Z,102847.02
2018-06-27T08:29:59.979Z,102848.53
2018-06-27T08:32:28.786Z,102864.48
2018-06-27T08:34:57.600Z,102863.85
2018-06-27T08:37:26.197Z,102855.14
2018-06-27T08:39:55.082Z,102858.74
2018-06-27T08:42:23.853Z,102857.31
2018-06-27T08:44:52.660Z,102853.34
2018-06-27T08:47:21.319Z,102847.97
2018-06-27T08:49:50.175Z,102843.52
2018-06-27T08:52:18.878Z,102841.74
2018-06-27T08:54:47.782Z,102844.22
2018-06-27T08:57:17.847Z,102845.79
2018-06-27T08:59:47.422Z,102839.67
2018-06-27T09:02:16.247Z,102837.45
2018-06-27T09:04:45.099Z,102837.88
2018-06-27T09:07:13.904Z,102834.88
2018-06-27T09:09:42.992Z,102835.47
2018-06-27T09:12:11.800Z,102829.58
2018-06-27T09:14:40.395Z,102826.71
2018-06-27T09:17:09.384Z,102822.11
2018-06-27T09:19:37.965Z,102828.08
2018-06-27T09:22:06.759Z,102829.28
2018-06-27T09:24:35.520Z,102826.81
2018-06-27T09:27:04.484Z,102827.59
2018-06-27T09:29:33.126Z,102823.85
2018-06-27T09:32:01.921Z,102825.14
2018-06-27T09:34:30.527Z,102819.34
2018-06-27T09:36:59.348Z,102819.88
2018-06-27T09:39:28.109Z,102824.94
2018-06-27T09:41:56.994Z,102820.34
2018-06-27T09:44:25.752Z,102816.05
2018-06-27T09:46:54.626Z,102812.33
2018-06-27T09:49:23.379Z,102810.97
2018-06-27T09:51:52.157Z,102804.59
2018-06-27T09:54:21.064Z,102814.88
2018-06-27T09:56:49.865Z,102813.34
2018-06-27T09:59:18.658Z,102811.93
2018-06-27T10:01:47.449Z,102807.13
2018-06-27T10:04:16.276Z,102802.01
2018-06-27T10:06:45.466Z,102807.25
2018-06-27T10:09:14.296Z,102804.95
2018-06-27T10:11:43.057Z,102795.84
2018-06-27T10:14:12.022Z,102796.36
2018-06-27T10:16:40.744Z,102790.02
2018-06-27T10:19:09.567Z,102788.24
2018-06-27T10:21:38.313Z,102787.06
2018-06-27T10:24:07.095Z,102782.67
2018-06-27T10:26:35.968Z,102778.67
2018-06-27T10:29:05.024Z,102779.40
2018-06-27T10:31:33.799Z,102779.90
2018-06-27T10:34:02.404Z,102788.83
2018-06-27T10:36:31.122Z,102779.00
2018-06-27T10:38:59.896Z,102774.11
2018-06-27T10:41:28.619Z,102772.26
2018-06-27T10:43:57.591Z,102772.87
2018-06-27T10:46:26.589Z,102776.56
2018-06-27T10:48:55.390Z,102780.47
2018-06-27T10:51:24.120Z,102781.03
2018-06-27T10:53:52.876Z,102777.81
2018-06-27T10:56:22.027Z,102779.73
2018-06-27T10:58:50.739Z,102777.62
2018-06-27T11:01:19.561Z,102769.56
2018-06-27T11:03:48.649Z,102769.67
2018-06-27T11:06:17.415Z,102777.00
2018-06-27T11:08:46.312Z,102770.43
2018-06-27T11:11:15.089Z,102771.85
2018-06-27T11:13:44.120Z,102766.13
2018-06-27T11:16:12.897Z,102766.52
2018-06-27T11:18:41.636Z,102768.46
2018-06-27T11:21:10.512Z,102763.22
2018-06-27T11:23:39.230Z,102748.24
2018-06-27T11:26:08.048Z,102753.50
2018-06-27T11:28:36.788Z,102748.16
2018-06-27T11:31:05.639Z,102754.21
2018-06-27T11:33:34.437Z,102747.81
2018-06-27T11:36:03.630Z,102748.13
2018-06-27T11:38:32.397Z,102742.64
2018-06-27T11:41:01.104Z,102750.16
2018-06-27T11:43:29.866Z,102744.65
2018-06-27T11:45:58.668Z,102752.52
2018-06-27T11:48:27.459Z,102746.09
2018-06-27T11:50:56.171Z,102737.98
2018-06-27T11:53:25.060Z,102749.82
2018-06-27T11:55:54.181Z,102746.84
2018-06-27T11:58:23.040Z,102745.88
2018-06-27T12:00:51.765Z,102741.55
2018-06-27T12:03:20.387Z,102738.37
2018-06-27T12:05:49.164Z,102731.87
2018-06-27T12:08:17.930Z,102731.30
2018-06-27T12:10:46.873Z,102731.33
2018-06-27T12:13:15.640Z,102737.33
2018-06-27T12:15:44.385Z,102731.31
2018-06-27T12:18:13.172Z,102726.59
2018-06-27T12:20:41.868Z,102726.64
2018-06-27T12:23:10.671Z,102720.30
2018-06-27T12:25:39.242Z,102724.60
2018-06-27T12:28:08.165Z,102727.05
2018-06-27T12:30:36.909Z,102721.81
2018-06-27T12:33:05.695Z,102717.94
2018-06-27T12:35:34.481Z,102707.06
2018-06-27T12:38:03.272Z,102708.14
2018-06-27T12:40:32.057Z,102715.88
2018-06-27T12:43:00.799Z,102713.96
2018-06-27T12:45:35.671Z,102714.05
2018-06-27T12:48:04.600Z,102704.52
2018-06-27T12:50:33.384Z,102689.80
2018-06-27T12:53:02.154Z,102703.64
2018-06-27T12:55:30.919Z,102697.49
2018-06-27T12:57:59.640Z,102697.73
2018-06-27T13:00:28.502Z,102697.52
2018-06-27T13:02:57.307Z,102696.84
2018-06-27T13:05:26.076Z,102694.59
2018-06-27T13:07:54.813Z,102691.23
2018-06-27T13:10:23.634Z,102681.67
2018-06-27T13:12:52.417Z,102684.63
2018-06-27T13:15:21.268Z,102690.39
2018-06-27T13:17:50.036Z,102686.05
2018-06-27T13:20:18.792Z,102688.89
2018-06-27T13:22:47.583Z,102673.59
2018-06-27T13:25:16.435Z,102670.72
2018-06-27T13:27:45.216Z,102676.68
2018-06-27T13:30:14.064Z,102674.28
2018-06-27T13:32:43.116Z,102665.13
2018-06-27T13:35:11.848Z,102668.48
2018-06-27T13:37:40.671Z,102667.72
2018-06-27T13:40:09.468Z,102660.69
2018-06-27T13:42:38.235Z,102664.59
2018-06-27T13:45:07.131Z,102658.55
2018-06-27T13:47:35.949Z,102657.47
2018-06-27T13:50:05.240Z,102659.26
2018-06-27T13:52:34.060Z,102659.70
2018-06-27T13:55:02.840Z,102653.36
2018-06-27T13:57:31.668Z,102649.88
2018-06-27T14:00:00.384Z,102653.28
2018-06-27T14:02:29.228Z,102651.86
2018-06-27T14:04:57.810Z,102658.39
2018-06-27T14:07:26.479Z,102660.34
2018-06-27T14:09:55.209Z,102653.16
2018-06-27T14:12:23.998Z,102651.78
2018-06-27T14:14:52.821Z,102651.50
2018-06-27T14:17:21.607Z,102646.45
2018-06-27T14:19:50.332Z,102643.20
2018-06-27T14:22:18.961Z,102641.20
2018-06-27T14:24:47.705Z,102648.47
2018-06-27T14:27:16.582Z,102642.72
2018-06-27T14:29:45.327Z,102641.66
2018-06-27T14:32:14.173Z,102645.41
2018-06-27T14:34:42.755Z,102637.72
2018-06-27T14:37:11.503Z,102637.52
2018-06-27T14:39:40.172Z,102625.69
2018-06-27T14:42:08.941Z,102632.63
2018-06-27T14:44:37.555Z,102633.05
2018-06-27T14:47:06.471Z,102626.89
2018-06-27T14:49:35.251Z,102634.70
2018-06-27T14:52:03.998Z,102627.44
2018-06-27T14:54:32.838Z,102617.53
2018-06-27T14:57:01.608Z,102612.58
2018-06-27T14:59:30.487Z,102612.14
2018-06-27T15:01:59.272Z,102619.61
2018-06-27T15:04:28.145Z,102624.08
2018-06-27T15:06:56.778Z,102625.77
2018-06-27T15:09:25.668Z,102608.48
2018-06-27T15:11:54.414Z,102606.17
2018-06-27T15:14:23.224Z,102605.04
2018-06-27T15:16:52.202Z,102601.70
2018-06-27T15:19:20.854Z,102599.12
2018-06-27T15:21:49.758Z,102598.36
2018-06-27T15:24:18.417Z,102599.48
2018-06-27T15:26:47.197Z,102597.39
2018-06-27T15:29:16.049Z,102600.63
2018-06-27T15:31:44.664Z,102595.77
2018-06-27T15:34:13.443Z,102603.09
2018-06-27T15:36:42.256Z,102602.13
2018-06-27T15:39:11.093Z,102600.69
2018-06-27T15:41:39.959Z,102595.83
2018-06-27T15:44:08.748Z,102597.23
2018-06-27T15:46:37.535Z,102591.59
2018-06-27T15:49:08.988Z,102583.83
2018-06-27T15:51:38.027Z,102583.55
2018-06-27T15:54:07.155Z,102590.01
2018-06-27T15:56:36.028Z,102593.18
2018-06-27T15:59:06.127Z,102595.17
2018-06-27T16:01:35.103Z,102586.45
2018-06-27T16:04:03.893Z,102590.47
2018-06-27T16:06:32.735Z,102593.13
2018-06-27T16:09:02.036Z,102590.00
2018-06-27T16:11:30.914Z,102590.00
2018-06-27T16:13:59.655Z,102589.07
2018-06-27T16:16:28.506Z,102590.89
2018-06-27T16:18:57.331Z,102593.20
2018-06-27T16:21:26.204Z,102580.45
2018-06-27T16:23:55.178Z,102579.42
2018-06-27T16:26:24.093Z,102578.13
2018-06-27T16:28:52.881Z,102573.19
2018-06-27T16:31:21.530Z,102580.12
2018-06-27T16:33:50.167Z,102581.15
2018-06-27T16:36:18.951Z,102582.89
2018-06-27T16:38:47.792Z,102578.02
2018-06-27T16:41:16.826Z,102580.81
2018-06-27T16:43:45.572Z,102579.63
2018-06-27T16:46:14.450Z,102579.89
2018-06-27T16:48:43.231Z,102572.89
2018-06-27T16:51:12.147Z,102571.27
2018-06-27T16:53:41.068Z,102573.73
2018-06-27T16:56:09.923Z,102577.96
2018-06-27T16:58:38.695Z,102575.13
2018-06-27T17:01:07.578Z,102567.53
2018-06-27T17:03:36.238Z,102574.14
2018-06-27T17:06:05.214Z,102568.77
2018-06-27T17:08:34.060Z,102567.94
2018-06-27T17:11:02.903Z,102569.30
2018-06-27T17:13:31.701Z,102569.57
2018-06-27T17:16:00.508Z,102573.48
2018-06-27T17:18:29.276Z,102568.82
2018-06-27T17:20:57.925Z,102576.84
2018-06-27T17:23:26.732Z,102582.39
2018-06-27T17:25:55.455Z,102581.33
2018-06-27T17:28:24.600Z,102584.27
2018-06-27T17:30:53.840Z,102586.05
2018-06-27T17:33:22.486Z,102582.14
2018-06-27T17:35:51.659Z,102582.17
2018-06-27T17:38:20.430Z,102589.23
2018-06-27T17:40:49.209Z,102588.56
2018-06-27T17:43:17.976Z,102588.43
2018-06-27T17:45:52.855Z,102591.67
2018-06-27T17:48:21.607Z,102592.92
2018-06-27T17:50:50.457Z,102584.03
2018-06-27T17:53:19.358Z,102595.83
2018-06-27T17:55:48.242Z,102594.52
2018-06-27T17:58:17.028Z,102592.77
2018-06-27T18:00:45.945Z,102593.58
2018-06-27T18:03:14.562Z,102595.00
2018-06-27T18:05:43.430Z,102588.70
2018-06-27T18:08:12.223Z,102585.34
2018-06-27T18:10:41.068Z,102593.69
2018-06-27T18:13:09.816Z,102588.80
2018-06-27T18:15:38.950Z,102588.42
2018-06-27T18:18:07.693Z,102589.83
2018-06-27T18:20:36.643Z,102597.88
2018-06-27T18:23:05.583Z,102593.31
2018-06-27T18:25:34.349Z,102600.98
2018-06-27T18:28:03.000Z,102600.19
2018-06-27T18:30:31.897Z,102601.78
2018-06-27T18:33:00.793Z,102605.39
2018-06-27T18:35:29.712Z,102603.81
2018-06-27T18:37:58.348Z,102597.86
2018-06-27T18:40:27.109Z,102600.45
2018-06-27T18:42:55.909Z,102607.23
2018-06-27T18:45:24.658Z,102607.27
2018-06-27T18:47:53.433Z,102611.69
2018-06-27T18:50:23.093Z,102610.09
2018-06-27T18:52:51.949Z,102609.70
2018-06-27T18:55:20.761Z,102610.27
2018-06-27T18:57:49.624Z,102614.48
2018-06-27T19:00:18.492Z,102607.72
2018-06-27T19:02:47.321Z,102618.28
2018-06-27T19:05:16.109Z,102611.73
2018-06-27T19:07:44.764Z,102615.30
2018-06-27T19:10:13.797Z,102609.95
2018-06-27T19:12:42.669Z,102611.53
2018-06-27T19:15:11.709Z,102614.72
2018-06-27T19:17:40.502Z,102617.52
2018-06-27T19:20:10.129Z,102615.09
2018-06-27T19:22:39.045Z,102618.50
2018-06-27T19:25:07.842Z,102619.66
2018-06-27T19:27:36.602Z,102622.80
2018-06-27T19:30:05.999Z,102623.16
2018-06-27T19:32:34.808Z,102619.19
2018-06-27T19:35:04.036Z,102621.72
2018-06-27T19:37:32.771Z,102630.05
2018-06-27T19:40:01.546Z,102631.62
2018-06-27T19:42:30.282Z,102636.97
2018-06-27T19:44:59.092Z,102638.50
2018-06-27T19:47:27.882Z,102636.89
2018-06-27T19:49:56.668Z,102640.83
2018-06-27T19:52:25.499Z,102641.55
2018-06-27T19:54:54.264Z,102643.47
2018-06-27T19:57:23.167Z,102640.27
2018-06-27T19:59:51.997Z,102638.45
2018-06-27T20:02:20.805Z,102645.89
2018-06-27T20:04:49.544Z,102647.08
2018-06-27T20:07:18.335Z,102646.23
2018-06-27T20:09:47.115Z,102654.08
2018-06-27T20:12:15.949Z,102654.25
2018-06-27T20:14:44.837Z,102655.68
2018-06-27T20:17:13.617Z,102658.78
2018-06-27T20:19:42.359Z,102662.88
2018-06-27T20:22:11.182Z,102659.05
2018-06-27T20:24:40.167Z,102662.50
2018-06-27T20:27:09.051Z,102661.79
2018-06-27T20:29:38.083Z,102665.16
2018-06-27T20:32:06.912Z,102661.50
2018-06-27T20:34:35.638Z,102666.21
2018-06-27T20:37:04.696Z,102664.36
2018-06-27T20:39:33.480Z,102666.44
2018-06-27T20:42:02.261Z,102668.14
2018-06-27T20:44:31.026Z,102676.77
2018-06-27T20:46:59.856Z,102678.65
2018-06-27T20:49:28.784Z,102683.45
2018-06-27T20:51:57.661Z,102679.75
2018-06-27T20:54:26.274Z,102682.94
2018-06-27T20:56:55.100Z,102680.81
2018-06-27T20:59:23.820Z,102685.28
2018-06-27T21:01:52.866Z,102679.22
2018-06-27T21:04:21.835Z,102677.70
2018-06-27T21:06:50.606Z,102677.75
2018-06-27T21:09:19.234Z,102675.41
2018-06-27T21:11:48.040Z,102677.80
2018-06-27T21:14:16.856Z,102679.67
2018-06-27T21:16:45.625Z,102678.41
2018-06-27T21:19:14.419Z,102678.28
2018-06-27T21:21:43.164Z,102678.88
2018-06-27T21:24:11.915Z,102682.18
2018-06-27T21:26:40.733Z,102682.80
2018-06-27T21:29:09.801Z,102675.94
2018-06-27T21:31:38.583Z,102682.13
2018-06-27T21:34:07.355Z,102684.68
2018-06-27T21:36:36.079Z,102681.77
2018-06-27T21:39:08.129Z,102684.39
2018-06-27T21:41:37.412Z,102681.69
2018-06-27T21:44:06.547Z,102687.16
2018-06-27T21:46:35.128Z,102691.37
2018-06-27T21:49:03.936Z,102691.31
2018-06-27T21:51:32.805Z,102689.92
2018-06-27T21:54:01.539Z,102692.14
2018-06-27T21:56:30.290Z,102695.25
2018-06-27T21:58:58.910Z,102693.16
2018-06-27T22:01:27.815Z,102696.55
2018-06-27T22:03:56.622Z,102699.52
2018-06-27T22:06:25.388Z,102693.28
2018-06-27T22:08:54.112Z,102697.63
2018-06-27T22:11:23.181Z,102703.11
2018-06-27T22:13:51.900Z,102697.71
2018-06-27T22:16:21.040Z,102699.33
2018-06-27T22:18:49.807Z,102699.27
2018-06-27T22:21:18.476Z,102702.35
2018-06-27T22:23:47.213Z,102698.52
2018-06-27T22:26:16.029Z,102700.58
2018-06-27T22:28:44.820Z,102704.22
2018-06-27T22:31:13.646Z,102703.72
2018-06-27T22:33:42.405Z,102705.73
2018-06-27T22:36:11.192Z,102705.09
2018-06-27T22:38:39.924Z,102703.23
2018-06-27T22:41:08.747Z,102706.72
2018-06-27T22:43:37.472Z,102715.31
2018-06-27T22:46:06.292Z,102710.73
2018-06-27T22:48:34.865Z,102713.91
2018-06-27T22:51:03.530Z,102712.89
2018-06-27T22:53:32.401Z,102713.67
2018-06-27T22:56:01.194Z,102722.53
2018-06-27T22:58:29.948Z,102717.02
2018-06-27T23:00:58.720Z,102714.30
2018-06-27T23:03:27.355Z,102713.85
2018-06-27T23:05:56.235Z,102721.08
2018-06-27T23:08:24.960Z,102725.83
2018-06-27T23:10:53.739Z,102719.01
2018-06-27T23:13:22.569Z,102723.80
2018-06-27T23:15:51.376Z,102726.97
2018-06-27T23:18:20.232Z,102721.36
2018-06-27T23:20:48.958Z,102719.05
2018-06-27T23:23:17.725Z,102720.07
2018-06-27T23:25:46.456Z,102717.67
2018-06-27T23:28:15.222Z,102721.69
2018-06-27T23:30:44.020Z,102721.84
2018-06-27T23:33:12.772Z,102716.08
2018-06-27T23:35:41.343Z,102717.62
2018-06-27T23:38:10.143Z,102715.13
2018-06-27T23:40:38.855Z,102713.79
2018-06-27T23:43:07.693Z,102718.73
2018-06-27T23:45:42.493Z,102719.13
2018-06-27T23:48:11.284Z,102724.68
2018-06-27T23:50:40.043Z,102724.47
2018-06-27T23:53:08.932Z,102722.08
2018-06-27T23:55:37.826Z,102724.47
2018-06-27T23:58:06.888Z,102723.78
